Time;durP1;ratioP1;P1;durP2;ratioP2;P2;SDS_P1;SDS_P2;PMS_P1;PMS_P2;Temp;Humidity;BMP_temperature;BMP_pressure;BME280_temperature;BME280_humidity;BME280_pressure;Samples;Min_cycle;Max_cycle;Signal;HPM_P1;HPM_P2
2021/01/16 03:47:36;;;;;;;14.27;8.02;;;3.10;63.70;;;;;;4896285;24;20284;-75
2021/01/16 03:50:03;;;;;;;14.68;7.50;;;3.20;63.70;;;;;;4856622;29;20033;-74
2021/01/16 03:52:31;;;;;;;14.35;7.70;;;3.10;63.80;;;;;;4870384;29;20035;-75
2021/01/16 03:54:57;;;;;;;14.93;7.90;;;3.10;63.80;;;;;;4871478;29;20040;-75
2021/01/16 03:57:24;;;;;;;13.50;7.03;;;3.20;63.80;;;;;;4870309;29;20324;-75
2021/01/16 03:59:51;;;;;;;14.15;7.55;;;3.10;63.90;;;;;;4871564;29;20021;-75
2021/01/16 04:02:18;;;;;;;12.98;7.22;;;3.20;63.50;;;;;;4870287;29;20045;-75
2021/01/16 04:04:44;;;;;;;14.35;8.15;;;3.10;63.70;;;;;;4871389;29;20033;-75
2021/01/16 04:07:10;;;;;;;12.20;6.95;;;3.10;63.60;;;;;;4871530;29;20022;-75
2021/01/16 04:09:36;;;;;;;17.33;7.80;;;3.30;63.60;;;;;;4854653;29;20041;-75
2021/01/16 04:12:02;;;;;;;13.95;7.85;;;3.30;63.40;;;;;;4870256;29;20029;-75
2021/01/16 04:14:28;;;;;;;14.85;8.60;;;3.30;63.50;;;;;;4871168;29;20036;-75
2021/01/16 04:16:54;;;;;;;11.90;7.47;;;3.40;63.60;;;;;;4858116;29;20030;-75
2021/01/16 04:19:19;;;;;;;13.35;7.53;;;3.40;63.60;;;;;;4836412;29;20101;-75
2021/01/16 04:21:46;;;;;;;14.73;8.20;;;3.50;63.90;;;;;;4851468;29;20155;-74
2021/01/16 04:24:12;;;;;;;15.98;7.90;;;3.50;64.20;;;;;;4836209;29;20297;-76
2021/01/16 04:26:38;;;;;;;15.60;8.40;;;3.40;64.40;;;;;;4852524;29;20048;-75
2021/01/16 04:29:04;;;;;;;20.13;10.45;;;3.40;65.00;;;;;;4852652;29;20289;-75
2021/01/16 04:31:30;;;;;;;13.98;8.13;;;3.40;65.30;;;;;;4851156;29;20058;-75
2021/01/16 04:33:56;;;;;;;12.18;7.60;;;3.30;65.70;;;;;;4852403;29;20198;-75
2021/01/16 04:36:22;;;;;;;17.00;8.73;;;3.20;66.10;;;;;;4852448;29;20026;-75
2021/01/16 04:38:48;;;;;;;13.88;7.72;;;3.00;67.20;;;;;;4851422;29;20053;-75
2021/01/16 04:41:14;;;;;;;15.63;9.05;;;3.00;67.50;;;;;;4851310;29;20030;-75
2021/01/16 04:43:41;;;;;;;13.27;7.43;;;3.00;67.60;;;;;;4850778;29;20030;-75
2021/01/16 04:46:08;;;;;;;12.98;7.47;;;3.20;67.30;;;;;;4850633;29;20060;-75
2021/01/16 04:48:36;;;;;;;12.60;7.88;;;3.20;67.10;;;;;;4852010;29;20034;-75
2021/01/16 04:51:03;;;;;;;14.15;8.40;;;3.30;66.80;;;;;;4851110;29;20038;-74
2021/01/16 04:53:38;;;;;;;18.63;8.88;;;3.20;66.90;;;;;;4850995;29;20041;-75
2021/01/16 04:56:13;;;;;;;15.68;8.70;;;3.30;66.50;;;;;;4850767;29;20105;-75
2021/01/16 04:58:40;;;;;;;13.98;8.10;;;3.40;66.60;;;;;;4852174;29;20025;-75
2021/01/16 05:01:08;;;;;;;14.05;7.43;;;3.30;66.20;;;;;;4852087;29;20049;-75
2021/01/16 05:03:42;;;;;;;19.42;8.27;;;3.20;66.00;;;;;;4852011;29;20026;-75
2021/01/16 05:06:10;;;;;;;13.55;7.70;;;3.30;66.30;;;;;;4852119;29;20337;-75
2021/01/16 05:08:41;;;;;;;12.30;8.10;;;3.30;66.10;;;;;;4835919;29;20040;-75
2021/01/16 05:11:25;;;;;;;12.85;7.60;;;3.30;65.90;;;;;;4851885;29;20037;-75
2021/01/16 05:14:11;;;;;;;12.23;7.50;;;3.20;65.10;;;;;;4852085;29;20034;-75
2021/01/16 05:16:56;;;;;;;;;;;3.40;65.00;;;;;;4852395;29;20246;-75
2021/01/16 05:19:24;;;;;;;13.48;8.10;;;3.60;64.60;;;;;;4835707;29;19909;-75
2021/01/16 05:21:50;;;;;;;11.90;6.82;;;3.50;64.00;;;;;;4850811;29;20058;-75
2021/01/16 05:24:16;;;;;;;9.97;6.30;;;3.30;63.40;;;;;;4850869;29;20109;-75
2021/01/16 05:27:07;;;;;;;11.20;6.17;;;3.20;62.90;;;;;;4850808;29;20246;-75
2021/01/16 05:29:34;;;;;;;12.57;6.30;;;3.20;62.90;;;;;;4835687;29;20283;-74
2021/01/16 05:32:03;;;;;;;9.15;5.55;;;3.20;63.20;;;;;;4851723;29;20060;-74
2021/01/16 05:34:31;;;;;;;13.75;6.88;;;3.20;63.20;;;;;;4851788;29;20033;-75
2021/01/16 05:36:58;;;;;;;11.00;6.68;;;3.20;63.10;;;;;;4851892;29;20033;-75
2021/01/16 05:39:27;;;;;;;10.98;6.78;;;3.30;63.10;;;;;;4851664;29;20208;-74
2021/01/16 05:42:03;;;;;;;19.65;8.30;;;3.10;62.90;;;;;;4851355;29;20539;-75
2021/01/16 05:44:29;;;;;;;12.55;6.80;;;3.20;63.10;;;;;;4847902;29;20244;-76
2021/01/16 05:46:56;;;;;;;12.68;6.90;;;3.40;62.50;;;;;;4850662;29;20042;-75
2021/01/16 05:49:23;;;;;;;10.40;6.18;;;3.40;62.30;;;;;;4850108;29;20026;-75
2021/01/16 05:51:50;;;;;;;11.82;6.95;;;3.30;61.90;;;;;;4850740;29;20057;-75
2021/01/16 05:54:17;;;;;;;12.98;6.32;;;3.30;62.20;;;;;;4850761;29;20038;-75
2021/01/16 05:56:44;;;;;;;13.45;6.93;;;3.30;62.10;;;;;;4852585;29;20101;-76
2021/01/16 05:59:12;;;;;;;12.60;6.82;;;3.20;62.20;;;;;;4855062;29;20085;-75
2021/01/16 06:01:39;;;;;;;11.00;6.13;;;3.20;62.20;;;;;;4853703;29;20038;-75
2021/01/16 06:04:05;;;;;;;12.85;6.38;;;3.20;61.20;;;;;;4855110;29;20022;-74
2021/01/16 06:06:35;;;;;;;9.68;5.68;;;3.10;61.70;;;;;;4853821;29;20314;-75
2021/01/16 06:09:03;;;;;;;10.75;6.18;;;3.00;62.20;;;;;;4854913;29;20090;-75
2021/01/16 06:11:38;;;;;;;12.13;6.63;;;3.20;62.00;;;;;;4853699;29;20032;-75
2021/01/16 06:14:08;;;;;;;11.25;5.70;;;3.10;62.20;;;;;;4854086;29;20036;-75
2021/01/16 06:16:49;;;;;;;12.10;7.25;;;3.20;62.50;;;;;;4852913;29;20045;-75
2021/01/16 06:19:30;;;;;;;12.15;6.40;;;3.10;62.60;;;;;;4836552;29;20463;-75
2021/01/16 06:21:56;;;;;;;12.77;6.80;;;3.00;62.50;;;;;;4853284;29;20109;-75
2021/01/16 06:24:24;;;;;;;14.30;7.15;;;3.00;63.10;;;;;;4854019;29;20130;-75
2021/01/16 06:26:58;;;;;;;11.77;5.90;;;3.10;63.00;;;;;;4852497;29;20278;-75
2021/01/16 06:29:31;;;;;;;10.95;6.65;;;3.10;63.50;;;;;;4851315;29;20029;-75
2021/01/16 06:32:10;;;;;;;9.68;6.20;;;3.20;62.60;;;;;;4854066;29;20029;-74
2021/01/16 06:34:41;;;;;;;10.77;6.72;;;3.40;62.50;;;;;;4852519;29;20238;-75
2021/01/16 06:37:15;;;;;;;11.90;7.32;;;3.20;62.20;;;;;;4853712;29;20097;-74
2021/01/16 06:39:49;;;;;;;11.45;6.47;;;3.30;62.40;;;;;;4852344;29;20026;-75
2021/01/16 06:42:22;;;;;;;11.38;5.93;;;3.10;62.00;;;;;;4853558;29;20101;-74
2021/01/16 06:45:00;;;;;;;12.02;6.75;;;3.10;62.30;;;;;;4853834;29;20061;-74
2021/01/16 06:47:27;;;;;;;11.13;5.88;;;3.10;62.30;;;;;;4853218;29;20393;-74
2021/01/16 06:49:58;;;;;;;11.02;6.68;;;3.20;62.20;;;;;;4853406;29;20037;-75
2021/01/16 06:52:35;;;;;;;11.00;5.75;;;3.20;62.20;;;;;;4850425;29;20056;-75
2021/01/16 06:55:03;;;;;;;;;;;3.00;62.00;;;;;;4854529;29;20033;-75
2021/01/16 06:57:31;;;;;;;9.35;5.78;;;3.10;61.90;;;;;;4853882;29;19968;-76
2021/01/16 07:00:12;;;;;;;12.32;5.70;;;3.00;62.00;;;;;;4852638;29;20233;-74
2021/01/16 07:02:39;;;;;;;11.95;6.35;;;2.80;62.10;;;;;;4849100;29;20034;-74
2021/01/16 07:05:06;;;;;;;11.75;6.20;;;2.70;62.70;;;;;;4852491;29;20199;-74
2021/01/16 07:07:38;;;;;;;10.65;6.20;;;2.80;62.50;;;;;;4852100;29;20057;-75
2021/01/16 07:10:08;;;;;;;15.43;7.20;;;2.90;63.00;;;;;;4850691;29;20038;-74
2021/01/16 07:12:35;;;;;;;11.80;6.47;;;2.90;62.70;;;;;;4853580;29;20026;-74
2021/01/16 07:15:05;;;;;;;13.80;6.53;;;2.80;62.70;;;;;;4853409;29;20036;-74
2021/01/16 07:17:31;;;;;;;12.00;7.07;;;2.70;62.80;;;;;;4852265;29;20029;-75
2021/01/16 07:19:58;;;;;;;12.05;6.50;;;2.70;62.40;;;;;;4853185;29;20053;-75
2021/01/16 07:22:32;;;;;;;9.60;6.18;;;2.70;62.90;;;;;;4852417;29;20337;-75
2021/01/16 07:25:00;;;;;;;12.27;6.85;;;2.80;63.20;;;;;;4853325;29;20041;-75
2021/01/16 07:27:26;;;;;;;11.30;5.90;;;2.90;62.50;;;;;;4847972;29;20025;-75
2021/01/16 07:29:57;;;;;;;9.80;5.47;;;2.90;62.00;;;;;;4852091;29;20029;-75
2021/01/16 07:32:42;;;;;;;10.77;6.80;;;2.90;62.60;;;;;;4852022;29;20329;-75
2021/01/16 07:35:15;;;;;;;10.13;6.63;;;2.80;62.50;;;;;;4851577;29;20060;-75
2021/01/16 07:37:43;;;;;;;12.05;6.57;;;2.70;63.90;;;;;;4853184;29;20026;-75
2021/01/16 07:40:18;;;;;;;11.95;6.30;;;2.80;64.50;;;;;;4850959;29;20226;-75
2021/01/16 07:42:49;;;;;;;11.80;6.78;;;2.40;67.00;;;;;;4850514;29;20045;-74
2021/01/16 07:45:25;;;;;;;18.35;7.63;;;2.10;69.70;;;;;;4853122;29;20045;-74
2021/01/16 07:47:52;;;;;;;13.95;7.50;;;2.00;71.40;;;;;;4851422;29;20347;-75
2021/01/16 07:50:28;;;;;;;18.15;9.10;;;1.90;71.70;;;;;;4848803;29;20036;-75
2021/01/16 07:53:02;;;;;;;14.38;8.50;;;1.90;71.80;;;;;;4850072;29;20025;-76
2021/01/16 07:55:37;;;;;;;16.25;8.40;;;1.80;72.00;;;;;;4851412;29;20214;-75
2021/01/16 07:58:27;;;;;;;14.52;8.68;;;1.90;72.10;;;;;;4852013;29;20030;-76
2021/01/16 08:01:17;;;;;;;17.30;10.57;;;2.10;71.70;;;;;;4849928;29;20026;-76
2021/01/16 08:04:12;;;;;;;17.52;9.30;;;2.00;71.80;;;;;;4850900;29;20037;-77
2021/01/16 08:07:06;;;;;;;16.25;10.23;;;2.00;71.70;;;;;;4851223;29;20083;-76
2021/01/16 08:09:50;;;;;;;19.42;11.02;;;1.70;73.20;;;;;;4850386;29;20026;-76
2021/01/16 08:12:17;;;;;;;15.23;8.98;;;1.90;73.50;;;;;;4852145;29;20036;-76
2021/01/16 08:14:44;;;;;;;18.48;10.90;;;1.90;73.70;;;;;;4850955;29;20038;-76
2021/01/16 08:17:17;;;;;;;16.88;9.43;;;2.10;73.00;;;;;;4835411;29;20045;-76
2021/01/16 08:20:08;;;;;;;17.92;10.55;;;2.10;72.70;;;;;;4850190;29;20014;-75
2021/01/16 08:22:51;;;;;;;13.27;8.48;;;2.10;73.00;;;;;;4832969;29;20041;-75
2021/01/16 08:25:30;;;;;;;17.90;9.90;;;2.10;72.20;;;;;;4848530;29;20030;-76
2021/01/16 08:27:57;;;;;;;16.80;10.57;;;2.10;72.30;;;;;;4849047;29;20264;-75
2021/01/16 08:30:25;;;;;;;18.20;8.82;;;2.10;72.40;;;;;;4847048;29;20054;-75
2021/01/16 08:32:57;;;;;;;14.80;8.88;;;1.90;71.80;;;;;;4851832;29;20143;-75
2021/01/16 08:35:29;;;;;;;16.13;9.52;;;1.90;71.70;;;;;;4851328;29;20394;-75
2021/01/16 08:38:18;;;;;;;14.50;9.30;;;2.00;71.50;;;;;;4850675;29;20057;-76
2021/01/16 08:40:54;;;;;;;16.70;10.32;;;1.80;72.10;;;;;;4848244;29;20030;-75
2021/01/16 08:43:42;;;;;;;17.02;10.10;;;2.00;72.60;;;;;;4850832;29;20037;-75
2021/01/16 08:46:19;;;;;;;15.70;9.55;;;2.10;72.00;;;;;;4850528;29;20241;-75
2021/01/16 08:49:04;;;;;;;16.00;10.38;;;2.00;72.30;;;;;;4850311;29;20029;-75
2021/01/16 08:51:39;;;;;;;18.98;11.23;;;2.00;72.30;;;;;;4851393;29;20252;-75
2021/01/16 08:54:08;;;;;;;16.70;9.43;;;2.20;72.40;;;;;;4851918;29;20029;-75
2021/01/16 08:56:34;;;;;;;15.43;9.85;;;2.10;72.60;;;;;;4851184;29;20066;-75
2021/01/16 08:59:16;;;;;;;24.17;11.93;;;2.00;72.80;;;;;;4852153;29;20190;-75
2021/01/16 09:01:43;;;;;;;18.25;9.45;;;2.10;73.10;;;;;;4851909;29;20030;-75
2021/01/16 09:04:23;;;;;;;17.08;10.05;;;2.00;71.30;;;;;;4851051;29;20021;-75
2021/01/16 09:06:51;;;;;;;18.17;10.63;;;2.00;72.20;;;;;;4852040;29;20289;-74
2021/01/16 09:09:25;;;;;;;21.70;10.13;;;2.00;72.10;;;;;;4851942;29;20040;-74
2021/01/16 09:12:06;;;;;;;17.75;8.38;;;1.90;71.10;;;;;;4850706;29;20041;-75
2021/01/16 09:14:32;;;;;;;15.45;8.52;;;1.70;70.20;;;;;;4851969;29;20101;-76
2021/01/16 09:17:17;;;;;;;21.17;10.73;;;1.80;69.60;;;;;;4851187;29;20026;-76
2021/01/16 09:19:43;;;;;;;16.10;9.15;;;1.90;70.30;;;;;;4846688;29;20030;-77
2021/01/16 09:22:27;;;;;;;18.95;10.35;;;2.00;70.40;;;;;;4849900;29;20254;-76
2021/01/16 09:25:14;;;;;;;17.40;8.63;;;2.10;70.30;;;;;;4850172;29;20038;-77
2021/01/16 09:27:45;;;;;;;16.98;8.50;;;2.00;68.60;;;;;;4851496;29;20302;-78
2021/01/16 09:30:32;;;;;;;16.98;8.32;;;2.00;68.50;;;;;;4852505;29;20034;-77
2021/01/16 09:33:19;;;;;;;10.60;6.53;;;2.10;66.80;;;;;;4854050;29;20092;-77
2021/01/16 09:35:45;;;;;;;15.38;8.30;;;2.10;64.50;;;;;;4859804;29;20046;-76
2021/01/16 09:38:21;;;;;;;13.70;7.10;;;2.10;64.70;;;;;;4839202;29;20022;-77
2021/01/16 09:40:50;;;;;;;13.13;7.30;;;2.10;64.60;;;;;;4854143;29;20046;-77
2021/01/16 09:43:17;;;;;;;16.08;6.63;;;2.00;64.40;;;;;;4853266;29;20129;-77
2021/01/16 09:46:00;;;;;;;13.88;8.13;;;1.90;63.80;;;;;;4853986;29;20057;-77
2021/01/16 09:48:41;;;;;;;16.25;8.88;;;1.90;65.00;;;;;;4855521;29;20089;-77
2021/01/16 09:51:13;;;;;;;15.00;8.20;;;2.00;65.80;;;;;;4854089;29;20022;-78
2021/01/16 09:53:40;;;;;;;17.33;9.35;;;2.00;66.10;;;;;;4853968;29;20033;-77
2021/01/16 09:56:07;;;;;;;;;;;2.10;66.20;;;;;;4838897;29;20217;-77
2021/01/16 09:58:40;;;;;;;13.55;7.90;;;2.20;66.20;;;;;;4854460;29;19913;-77
2021/01/16 10:01:23;;;;;;;16.25;8.15;;;2.20;66.20;;;;;;4853772;29;20037;-77
2021/01/16 10:03:53;;;;;;;24.05;11.48;;;1.90;66.20;;;;;;4851971;29;20037;-77
2021/01/16 10:06:20;;;;;;;14.05;8.43;;;1.80;66.80;;;;;;4852898;29;20086;-77
2021/01/16 10:08:49;;;;;;;17.83;10.07;;;1.90;66.70;;;;;;4853799;29;20033;-77
2021/01/16 10:11:39;;;;;;;16.30;9.30;;;2.00;67.30;;;;;;4842658;29;20049;-78
2021/01/16 10:14:34;;;;;;;17.48;8.63;;;2.10;65.70;;;;;;4857455;29;20037;-78
2021/01/16 10:17:10;;;;;;;13.00;7.63;;;2.20;66.40;;;;;;4838088;29;20063;-77
2021/01/16 10:19:38;;;;;;;16.30;8.43;;;2.30;65.90;;;;;;4841807;29;20098;-77
2021/01/16 10:22:03;;;;;;;15.30;8.27;;;2.20;66.10;;;;;;4848212;29;20030;-77
2021/01/16 10:24:29;;;;;;;12.85;7.78;;;2.00;66.40;;;;;;4842738;29;20177;-77
2021/01/16 10:26:56;;;;;;;19.40;9.35;;;1.90;67.00;;;;;;4837191;29;20038;-77
2021/01/16 10:29:41;;;;;;;15.27;8.15;;;2.00;67.60;;;;;;4852150;29;20059;-78
2021/01/16 10:32:24;;;;;;;15.35;8.27;;;2.10;67.00;;;;;;4854326;29;20274;-78
2021/01/16 10:34:58;;;;;;;16.30;8.30;;;2.30;66.70;;;;;;4854147;29;20030;-78
2021/01/16 10:37:28;;;;;;;15.98;8.02;;;2.30;66.40;;;;;;4862244;29;20034;-77
2021/01/16 10:40:02;;;;;;;12.13;7.25;;;2.50;65.80;;;;;;4851081;29;20026;-78
2021/01/16 10:42:47;;;;;;;14.63;7.28;;;2.60;65.50;;;;;;4836390;29;20206;-77
2021/01/16 10:45:14;;;;;;;12.48;6.97;;;2.60;62.80;;;;;;4851044;29;20030;-77
2021/01/16 10:47:42;;;;;;;13.38;7.07;;;2.60;62.70;;;;;;4839395;29;20065;-78
2021/01/16 10:50:35;;;;;;;12.48;6.85;;;2.60;61.80;;;;;;4855052;29;20026;-77
2021/01/16 10:53:05;;;;;;;11.48;6.72;;;2.50;61.70;;;;;;4815992;29;20050;-77
2021/01/16 10:56:23;;;;;;;14.95;7.60;;;2.50;61.60;;;;;;4816397;29;20083;-77
2021/01/16 10:58:49;;;;;;;9.93;6.40;;;2.60;61.30;;;;;;4751371;30;20071;-77
2021/01/16 11:01:48;;;;;;;13.55;6.68;;;2.60;60.90;;;;;;4765826;30;20046;-77
2021/01/16 11:04:40;;;;;;;13.65;6.38;;;2.50;58.60;;;;;;4780266;30;20097;-77
2021/01/16 11:07:09;;;;;;;14.32;6.38;;;2.50;58.60;;;;;;4765820;30;20119;-77
2021/01/16 11:09:34;;;;;;;18.73;6.63;;;2.60;59.30;;;;;;4750656;30;20072;-77
2021/01/16 11:12:04;;;;;;;11.63;6.38;;;2.70;58.80;;;;;;4780779;30;20032;-77
2021/01/16 11:14:33;;;;;;;10.95;7.00;;;2.90;58.90;;;;;;4740972;30;20332;-78
2021/01/16 11:17:01;;;;;;;8.63;5.47;;;2.80;57.50;;;;;;4750472;30;20036;-77
2021/01/16 11:19:32;;;;;;;11.10;6.20;;;2.70;56.70;;;;;;4764294;30;20391;-77
2021/01/16 11:22:08;;;;;;;13.18;7.18;;;2.80;56.70;;;;;;4747114;30;20032;-77
2021/01/16 11:24:54;;;;;;;10.00;5.55;;;2.70;56.10;;;;;;4765103;30;20043;-77
2021/01/16 11:27:21;;;;;;;;;;;2.70;56.80;;;;;;4779540;30;20031;-77
2021/01/16 11:29:47;;;;;;;11.75;6.45;;;2.80;57.30;;;;;;4787236;29;19909;-76
2021/01/16 11:32:16;;;;;;;10.48;5.88;;;3.00;57.30;;;;;;4819211;29;20050;-76
2021/01/16 11:35:11;;;;;;;12.57;5.93;;;3.10;56.00;;;;;;4853372;29;20338;-77
2021/01/16 11:37:47;;;;;;;11.52;6.07;;;3.10;55.50;;;;;;4852149;29;20030;-76
2021/01/16 11:40:32;;;;;;;;;;;3.00;56.10;;;;;;4854240;29;20090;-76
2021/01/16 11:43:10;;;;;;;11.10;6.30;;;2.80;54.50;;;;;;4852480;29;19915;-77
2021/01/16 11:45:37;;;;;;;10.80;5.75;;;3.10;55.50;;;;;;4853033;29;20286;-76
2021/01/16 11:48:05;;;;;;;8.85;5.47;;;2.90;54.90;;;;;;4853258;29;20102;-77
2021/01/16 11:50:36;;;;;;;11.00;5.75;;;2.80;54.90;;;;;;4852365;29;20018;-77
2021/01/16 11:53:11;;;;;;;10.60;6.15;;;2.80;54.80;;;;;;4853308;29;20044;-76
2021/01/16 11:55:38;;;;;;;9.40;5.47;;;2.70;54.40;;;;;;4842181;29;20062;-76
2021/01/16 11:58:04;;;;;;;8.85;5.10;;;2.90;55.00;;;;;;4834766;29;20101;-76
2021/01/16 12:00:31;;;;;;;11.38;5.95;;;2.80;54.00;;;;;;4843946;29;20022;-76
2021/01/16 12:02:58;;;;;;;10.30;6.68;;;2.80;54.60;;;;;;4852164;29;20033;-76
2021/01/16 12:05:25;;;;;;;11.80;7.03;;;2.80;54.60;;;;;;4852549;29;20078;-76
2021/01/16 12:07:55;;;;;;;;;;;3.00;54.70;;;;;;4851624;29;20237;-76
2021/01/16 12:10:28;;;;;;;9.80;5.82;;;3.10;54.30;;;;;;4850752;29;19908;-76
2021/01/16 12:12:55;;;;;;;14.18;5.55;;;3.10;53.70;;;;;;4850104;29;20314;-76
2021/01/16 12:15:22;;;;;;;9.93;5.88;;;2.90;52.60;;;;;;4837668;29;20057;-75
2021/01/16 12:17:50;;;;;;;12.65;6.75;;;2.90;54.10;;;;;;4850405;29;20254;-75
2021/01/16 12:20:17;;;;;;;13.15;5.47;;;3.00;53.30;;;;;;4850695;29;20042;-76
2021/01/16 12:22:44;;;;;;;11.38;6.53;;;2.80;52.20;;;;;;4851970;29;20018;-75
2021/01/16 12:25:12;;;;;;;10.15;5.75;;;2.90;53.30;;;;;;4851933;29;20316;-75
2021/01/16 12:27:47;;;;;;;16.85;7.28;;;2.90;53.20;;;;;;4850828;29;20348;-74
2021/01/16 12:30:13;;;;;;;10.18;5.85;;;2.80;53.50;;;;;;4847039;29;20333;-75
2021/01/16 12:32:39;;;;;;;10.35;6.15;;;2.90;53.40;;;;;;4851958;29;20110;-74
2021/01/16 12:35:07;;;;;;;9.32;5.45;;;2.80;53.10;;;;;;4850799;29;20041;-75
2021/01/16 12:37:35;;;;;;;10.95;6.05;;;3.00;53.00;;;;;;4847549;29;20058;-75
2021/01/16 12:40:03;;;;;;;11.57;5.78;;;3.00;53.00;;;;;;4851285;29;20189;-74
2021/01/16 12:42:33;;;;;;;10.88;6.50;;;2.80;52.00;;;;;;4851493;29;20033;-74
2021/01/16 12:45:03;;;;;;;11.50;6.43;;;2.60;53.00;;;;;;4830931;29;20102;-75
2021/01/16 12:47:29;;;;;;;11.55;6.60;;;2.60;53.20;;;;;;4838487;29;20054;-74
2021/01/16 12:49:56;;;;;;;10.88;5.45;;;2.80;52.80;;;;;;4837110;29;20102;-74
2021/01/16 12:52:26;;;;;;;;;;;2.70;53.10;;;;;;4870560;29;20029;-74
2021/01/16 12:55:04;;;;;;;14.23;6.38;;;2.60;53.40;;;;;;4864029;29;19913;-75
2021/01/16 12:57:36;;;;;;;15.27;6.72;;;2.70;53.30;;;;;;4851159;29;20037;-74
2021/01/16 13:00:05;;;;;;;12.88;6.20;;;2.70;53.90;;;;;;4850439;29;20026;-74
2021/01/16 13:02:31;;;;;;;10.52;6.70;;;2.80;53.70;;;;;;4855566;29;20024;-75
2021/01/16 13:05:00;;;;;;;11.50;6.47;;;2.80;52.90;;;;;;4869612;29;20030;-74
2021/01/16 13:07:28;;;;;;;10.43;6.38;;;2.80;53.30;;;;;;4855562;29;20025;-74
2021/01/16 13:10:00;;;;;;;12.60;5.90;;;2.70;53.30;;;;;;4845322;29;20029;-74
2021/01/16 13:12:34;;;;;;;24.65;7.28;;;2.70;53.20;;;;;;4851536;29;20033;-74
2021/01/16 13:15:00;;;;;;;14.82;6.07;;;2.60;53.50;;;;;;4849810;29;20045;-74
2021/01/16 13:17:27;;;;;;;10.00;5.95;;;2.80;53.70;;;;;;4850096;29;20333;-75
2021/01/16 13:19:54;;;;;;;;;;;2.70;52.90;;;;;;4850544;29;20071;-74
2021/01/16 13:22:25;;;;;;;13.45;6.75;;;2.70;53.00;;;;;;4865693;29;19920;-75
2021/01/16 13:25:08;;;;;;;11.35;6.10;;;2.60;52.80;;;;;;4838577;29;20221;-74
2021/01/16 13:27:37;;;;;;;10.63;6.07;;;2.70;53.10;;;;;;4833327;29;20026;-74
2021/01/16 13:30:14;;;;;;;11.93;6.35;;;2.70;53.30;;;;;;4842449;29;20070;-75
2021/01/16 13:32:43;;;;;;;9.65;6.50;;;2.70;53.20;;;;;;4850221;29;20092;-74
2021/01/16 13:35:10;;;;;;;11.43;6.85;;;2.90;53.30;;;;;;4850064;29;20030;-74
2021/01/16 13:37:38;;;;;;;11.63;6.50;;;3.00;53.70;;;;;;4851343;29;20028;-75
2021/01/16 13:40:20;;;;;;;13.00;7.53;;;3.10;52.80;;;;;;4851142;29;20040;-74
2021/01/16 13:42:48;;;;;;;12.65;6.55;;;3.10;53.20;;;;;;4851418;29;20071;-74
2021/01/16 13:45:19;;;;;;;11.43;6.18;;;3.30;53.40;;;;;;4850375;29;20090;-74
2021/01/16 13:48:00;;;;;;;13.73;7.07;;;3.30;52.50;;;;;;4850876;29;20062;-76
2021/01/16 13:50:31;;;;;;;14.02;6.60;;;3.10;52.00;;;;;;4851043;29;20098;-75
2021/01/16 13:52:57;;;;;;;17.30;7.20;;;3.20;52.40;;;;;;4850057;29;20109;-74
2021/01/16 13:55:28;;;;;;;12.50;5.90;;;3.20;52.50;;;;;;4851098;29;20030;-75
2021/01/16 13:58:04;;;;;;;10.05;5.13;;;3.20;51.50;;;;;;4850131;29;20056;-75
2021/01/16 14:00:51;;;;;;;11.07;6.13;;;3.10;50.60;;;;;;4851075;29;20036;-74
2021/01/16 14:03:27;;;;;;;11.07;5.90;;;3.10;51.60;;;;;;4834400;29;20037;-75
2021/01/16 14:06:01;;;;;;;13.63;6.07;;;3.00;52.50;;;;;;4849860;29;20040;-74
2021/01/16 14:08:27;;;;;;;13.18;6.20;;;3.00;52.10;;;;;;4851169;29;20073;-74
2021/01/16 14:11:05;;;;;;;11.27;5.95;;;3.20;52.80;;;;;;4850043;29;20036;-75
2021/01/16 14:13:36;;;;;;;14.00;6.10;;;3.10;52.10;;;;;;4849974;29;20018;-75
2021/01/16 14:16:07;;;;;;;9.52;5.60;;;3.20;52.10;;;;;;4834086;29;20057;-74
2021/01/16 14:18:35;;;;;;;18.00;6.43;;;3.00;51.40;;;;;;4835889;29;20101;-74
2021/01/16 14:21:16;;;;;;;20.58;6.00;;;3.10;51.80;;;;;;4850236;29;20045;-75
2021/01/16 14:23:43;;;;;;;12.10;6.05;;;3.00;51.30;;;;;;4849987;29;20038;-74
2021/01/16 14:26:23;;;;;;;14.05;6.85;;;3.20;52.00;;;;;;4849938;29;20038;-74
2021/01/16 14:28:51;;;;;;;15.68;6.72;;;3.30;51.70;;;;;;4853481;29;20038;-75
2021/01/16 14:31:19;;;;;;;10.93;6.50;;;3.30;51.00;;;;;;4852324;29;20046;-75
2021/01/16 14:33:55;;;;;;;12.98;5.90;;;3.20;51.20;;;;;;4836831;29;20332;-75
2021/01/16 14:36:26;;;;;;;11.60;6.43;;;3.20;51.20;;;;;;4852554;29;20034;-74
2021/01/16 14:39:00;;;;;;;12.00;5.13;;;3.00;49.70;;;;;;4856610;29;20033;-74
2021/01/16 14:41:53;;;;;;;9.82;4.65;;;2.90;49.30;;;;;;4850848;29;20030;-74
2021/01/16 14:44:29;;;;;;;13.23;5.65;;;2.80;48.90;;;;;;4797534;30;20050;-74
2021/01/16 14:46:59;;;;;;;8.80;4.70;;;2.80;49.30;;;;;;4790059;29;20059;-74
2021/01/16 14:49:26;;;;;;;9.45;5.10;;;2.70;48.50;;;;;;4784265;29;20457;-74
2021/01/16 14:51:54;;;;;;;9.52;4.80;;;2.60;48.70;;;;;;4799310;29;20030;-73
2021/01/16 14:54:21;;;;;;;7.78;4.60;;;2.50;48.80;;;;;;4814440;29;20046;-74
2021/01/16 14:56:51;;;;;;;9.88;5.05;;;2.40;49.00;;;;;;4815042;29;20050;-74
2021/01/16 14:59:19;;;;;;;7.95;3.90;;;2.30;49.30;;;;;;4814550;29;20023;-74
2021/01/16 15:01:47;;;;;;;9.50;4.45;;;2.30;49.90;;;;;;4814144;29;20049;-74
2021/01/16 15:04:16;;;;;;;6.28;3.53;;;2.20;49.90;;;;;;4814266;29;20038;-74
2021/01/16 15:06:50;;;;;;;7.05;3.47;;;2.10;49.10;;;;;;4799762;29;20042;-74
2021/01/16 15:09:29;;;;;;;6.47;4.05;;;1.90;49.00;;;;;;4814729;29;20047;-73
2021/01/16 15:11:56;;;;;;;8.95;4.53;;;1.90;49.40;;;;;;4814681;29;20043;-74
2021/01/16 15:14:25;;;;;;;12.23;3.90;;;2.00;49.70;;;;;;4815004;29;20047;-73
2021/01/16 15:16:52;;;;;;;9.45;4.45;;;2.00;49.90;;;;;;4799625;29;20062;-73
2021/01/16 15:19:18;;;;;;;10.32;4.28;;;1.90;49.90;;;;;;4813471;29;20356;-74
2021/01/16 15:21:44;;;;;;;11.63;5.67;;;1.90;50.40;;;;;;4842495;29;20034;-74
2021/01/16 15:24:10;;;;;;;7.13;4.15;;;2.00;49.80;;;;;;4851910;29;20030;-74
2021/01/16 15:26:42;;;;;;;8.30;4.47;;;1.80;50.00;;;;;;4851625;29;20077;-73
2021/01/16 15:29:11;;;;;;;12.10;4.38;;;1.90;50.40;;;;;;4853001;29;20049;-74
2021/01/16 15:31:38;;;;;;;8.60;4.30;;;1.70;50.40;;;;;;4836475;29;20305;-74
2021/01/16 15:34:04;;;;;;;;;;;1.80;50.40;;;;;;4853076;29;20044;-74
2021/01/16 15:36:30;;;;;;;10.90;5.55;;;1.60;50.30;;;;;;4853246;29;19948;-74
2021/01/16 15:38:57;;;;;;;11.02;5.63;;;1.90;50.80;;;;;;4841324;29;20053;-74
2021/01/16 15:41:37;;;;;;;9.68;4.70;;;1.90;50.60;;;;;;4853450;29;20316;-74
2021/01/16 15:44:04;;;;;;;9.23;4.68;;;2.00;50.30;;;;;;4851914;29;20040;-74
2021/01/16 15:46:29;;;;;;;8.20;5.18;;;2.10;50.20;;;;;;4852732;29;20053;-74
2021/01/16 15:49:04;;;;;;;10.57;5.05;;;2.00;50.50;;;;;;4852822;29;20270;-75
2021/01/16 15:51:29;;;;;;;11.70;4.65;;;2.10;50.40;;;;;;4851213;29;20029;-74
2021/01/16 15:53:57;;;;;;;11.63;5.15;;;2.10;50.50;;;;;;4851724;29;20057;-73
2021/01/16 15:56:31;;;;;;;10.13;5.45;;;2.10;49.90;;;;;;4851396;29;20026;-74
2021/01/16 15:58:58;;;;;;;14.20;6.00;;;2.10;50.40;;;;;;4852752;29;20079;-74
2021/01/16 16:01:25;;;;;;;10.63;5.68;;;2.10;50.20;;;;;;4847670;29;20018;-74
2021/01/16 16:03:52;;;;;;;;;;;2.20;50.40;;;;;;4840180;29;20041;-74
2021/01/16 16:06:18;;;;;;;12.30;5.25;;;2.20;50.30;;;;;;4851932;29;19908;-74
2021/01/16 16:08:45;;;;;;;9.02;5.00;;;2.30;50.20;;;;;;4849257;29;20053;-74
2021/01/16 16:11:11;;;;;;;14.25;5.50;;;2.20;50.10;;;;;;4836580;29;20328;-74
2021/01/16 16:13:37;;;;;;;8.93;4.50;;;2.20;50.40;;;;;;4844737;29;20033;-73
2021/01/16 16:16:05;;;;;;;10.90;5.00;;;2.30;50.50;;;;;;4850296;29;20047;-73
2021/01/16 16:18:36;;;;;;;7.97;4.25;;;2.30;50.40;;;;;;4850194;29;20030;-73
2021/01/16 16:21:06;;;;;;;6.88;4.20;;;2.10;50.20;;;;;;4847665;29;20094;-74
2021/01/16 16:23:37;;;;;;;11.30;4.60;;;2.20;50.40;;;;;;4851467;29;20041;-73
2021/01/16 16:26:05;;;;;;;8.38;4.38;;;2.10;50.30;;;;;;4847662;29;20092;-73
2021/01/16 16:28:31;;;;;;;9.77;4.65;;;2.20;50.80;;;;;;4843251;29;20533;-73
2021/01/16 16:30:57;;;;;;;8.93;4.60;;;2.30;50.30;;;;;;4850228;29;20069;-73
2021/01/16 16:33:24;;;;;;;7.88;4.30;;;2.30;50.70;;;;;;4849136;29;20041;-74
2021/01/16 16:35:56;;;;;;;;;;;2.30;50.70;;;;;;4845569;29;20070;-72
2021/01/16 16:38:23;;;;;;;13.05;5.25;;;2.40;50.80;;;;;;4851040;29;19916;-73
2021/01/16 16:40:50;;;;;;;10.88;4.47;;;2.30;50.80;;;;;;4851202;29;20052;-73
2021/01/16 16:43:17;;;;;;;9.20;4.88;;;2.40;50.90;;;;;;4843079;29;20305;-73
2021/01/16 16:45:45;;;;;;;8.70;4.38;;;2.50;50.60;;;;;;4849163;29;20113;-74
2021/01/16 16:48:12;;;;;;;9.65;5.00;;;2.30;50.50;;;;;;4849093;29;20077;-73
2021/01/16 16:50:38;;;;;;;;;;;2.20;50.70;;;;;;4853291;29;20074;-73
2021/01/16 16:53:06;;;;;;;11.15;5.25;;;2.20;50.10;;;;;;4850816;29;19908;-73
2021/01/16 16:55:33;;;;;;;10.57;4.13;;;2.40;50.70;;;;;;4849258;29;20026;-73
2021/01/16 16:57:59;;;;;;;7.53;4.13;;;2.30;50.20;;;;;;4849166;29;20025;-73
2021/01/16 17:00:27;;;;;;;7.85;4.75;;;2.50;50.60;;;;;;4846042;29;20018;-73